Time;durP1;ratioP1;P1;durP2;ratioP2;P2;SDS_P1;SDS_P2;PMS_P1;PMS_P2;Temp;Humidity;BMP_temperature;BMP_pressure;BME280_temperature;BME280_humidity;BME280_pressure;Samples;Min_cycle;Max_cycle;Signal;HPM_P1;HPM_P2
2023/05/25 00:01:36;;;;;;;3.35;1.08;;;;;;;;;;5070307;28;20028;-76
2023/05/25 00:04:02;;;;;;;3.35;0.73;;;;;;;;;;5058068;28;20112;-76
2023/05/25 00:06:29;;;;;;;6.00;0.97;;;;;;;;;;5066585;28;20105;-77
2023/05/25 00:08:56;;;;;;;4.05;1.17;;;10.50;79.80;;;;;;5070242;28;20031;-76
2023/05/25 00:11:23;;;;;;;1.48;0.93;;;10.40;80.10;;;;;;5066198;28;20037;-76
2023/05/25 00:13:50;;;;;;;1.30;1.20;;;10.30;80.50;;;;;;5061696;28;20489;-76
2023/05/25 00:16:16;;;;;;;4.50;1.10;;;10.00;87.90;;;;;;5065295;28;20028;-76
2023/05/25 00:18:42;;;;;;;1.33;0.90;;;;;;;;;;5046979;28;20025;-76
2023/05/25 00:21:08;;;;;;;1.80;0.80;;;;;;;;;;5064079;28;20083;-76
2023/05/25 00:23:34;;;;;;;0.95;0.80;;;;;;;;;;5070480;28;20079;-76
2023/05/25 00:26:02;;;;;;;2.67;0.93;;;10.10;82.00;;;;;;5069543;28;20469;-76
2023/05/25 00:28:27;;;;;;;;;;;10.10;83.20;;;;;;5070712;28;20032;-76
2023/05/25 00:30:53;;;;;;;8.00;1.23;;;;;;;;;;5068617;28;19920;-76
2023/05/25 00:33:19;;;;;;;8.50;1.42;;;;;;;;;;5069472;28;20025;-76
2023/05/25 00:35:45;;;;;;;2.28;1.10;;;;;;;;;;5068209;28;20025;-76
2023/05/25 00:38:15;;;;;;;9.48;0.77;;;9.90;84.40;;;;;;5069532;28;20452;-76
2023/05/25 00:40:42;;;;;;;2.13;0.95;;;;;;;;;;5059247;28;20028;-76
2023/05/25 00:43:09;;;;;;;1.05;0.73;;;9.70;85.40;;;;;;5060282;28;20070;-76
2023/05/25 00:45:35;;;;;;;1.20;1.10;;;9.80;96.70;;;;;;5069790;28;20553;-76
2023/05/25 00:48:01;;;;;;;2.72;1.80;;;;;;;;;;5069812;28;20048;-76
2023/05/25 00:50:39;;;;;;;3.72;1.55;;;9.60;87.90;;;;;;5069494;28;20169;-76
2023/05/25 00:53:06;;;;;;;1.98;0.90;;;9.50;88.50;;;;;;5069854;28;20040;-76
2023/05/25 00:55:35;;;;;;;;;;;9.40;90.30;;;;;;5069749;28;20027;-76
2023/05/25 00:58:03;;;;;;;3.28;1.27;;;;;;;;;;5069342;28;19946;-76
2023/05/25 01:00:30;;;;;;;6.05;1.20;;;;;;;;;;5068879;28;20074;-76
2023/05/25 01:02:58;;;;;;;4.75;1.25;;;;;;;;;;5065209;28;20047;-76
2023/05/25 01:05:27;;;;;;;3.20;1.30;;;9.20;91.70;;;;;;5068680;28;20043;-76
2023/05/25 01:07:56;;;;;;;3.92;1.50;;;9.20;91.30;;;;;;5068508;28;20432;-76
2023/05/25 01:10:24;;;;;;;6.03;1.48;;;9.20;91.50;;;;;;5070026;28;20112;-76
2023/05/25 01:12:53;;;;;;;2.47;1.25;;;9.20;92.00;;;;;;5056890;28;20044;-75
2023/05/25 01:15:19;;;;;;;1.83;1.20;;;9.30;91.30;;;;;;5069441;28;20020;-76
2023/05/25 01:17:45;;;;;;;1.05;0.95;;;;;;;;;;5052466;28;20481;-76
2023/05/25 01:20:11;;;;;;;2.20;0.98;;;;;;;;;;5058807;28;20028;-76
2023/05/25 01:22:54;;;;;;;1.02;0.90;;;9.20;92.30;;;;;;5056315;28;20558;-76
2023/05/25 01:25:25;;;;;;;2.05;0.98;;;9.10;92.40;;;;;;5058692;28;20409;-76
2023/05/25 01:28:00;;;;;;;3.70;1.20;;;9.00;92.90;;;;;;5047793;28;20025;-76
2023/05/25 01:30:29;;;;;;;2.50;1.38;;;8.90;99.90;;;;;;5052554;28;20497;-76
2023/05/25 01:32:55;;;;;;;2.25;1.38;;;8.80;94.50;;;;;;5058805;28;20037;-76
2023/05/25 01:35:23;;;;;;;5.68;1.20;;;8.60;95.50;;;;;;5052719;28;20029;-76
2023/05/25 01:37:50;;;;;;;;;;;8.80;95.20;;;;;;5064259;28;20024;-76
2023/05/25 01:40:16;;;;;;;1.45;1.10;;;;;;;;;;5060554;28;20646;-76
2023/05/25 01:42:42;;;;;;;4.30;1.23;;;;;;;;;;5051018;28;20028;-76
2023/05/25 01:45:10;;;;;;;3.03;1.40;;;8.60;96.10;;;;;;5055777;28;20055;-76
2023/05/25 01:47:44;;;;;;;;;;;8.60;95.90;;;;;;5057572;28;20389;-76
2023/05/25 01:50:22;;;;;;;7.40;1.17;;;8.70;95.10;;;;;;5049308;28;19904;-76
2023/05/25 01:52:54;;;;;;;8.43;1.33;;;;;;;;;;5049305;28;20410;-76
2023/05/25 01:55:21;;;;;;;2.65;1.30;;;;;;;;;;5048948;28;20803;-76
2023/05/25 01:57:51;;;;;;;4.05;1.17;;;8.70;95.00;;;;;;5048823;28;20088;-76
2023/05/25 02:00:20;;;;;;;2.10;1.38;;;8.40;95.20;;;;;;5048726;28;20037;-76
2023/05/25 02:02:46;;;;;;;2.40;1.65;;;;;;;;;;5048687;28;20037;-76
2023/05/25 02:05:12;;;;;;;5.13;2.17;;;8.60;95.60;;;;;;5051552;28;20031;-76
2023/05/25 02:07:39;;;;;;;1.70;1.38;;;;;;;;;;5057684;28;20025;-76
2023/05/25 02:10:05;;;;;;;1.50;1.17;;;;;;;;;;5048070;28;20107;-76
2023/05/25 02:12:31;;;;;;;2.22;1.00;;;;;;;;;;5048392;28;20063;-76
2023/05/25 02:14:57;;;;;;;3.17;1.60;;;;;;;;;;5049071;28;20025;-77
2023/05/25 02:17:26;;;;;;;3.08;1.00;;;;;;;;;;5050272;28;20037;-76
2023/05/25 02:19:53;;;;;;;3.15;1.55;;;8.20;99.90;;;;;;5050176;28;20028;-76
2023/05/25 02:22:20;;;;;;;2.10;1.15;;;8.20;99.90;;;;;;5057975;28;20043;-75
2023/05/25 02:24:46;;;;;;;1.73;1.27;;;;;;;;;;5067600;28;20397;-76
2023/05/25 02:27:12;;;;;;;4.25;1.88;;;;;;;;;;5068279;28;20032;-76
2023/05/25 02:29:39;;;;;;;2.03;1.30;;;;;;;;;;5067195;28;20409;-75
2023/05/25 02:32:06;;;;;;;3.22;1.13;;;8.10;98.60;;;;;;5067335;28;20025;-76
2023/05/25 02:34:32;;;;;;;1.63;1.50;;;;;;;;;;5062991;28;20653;-76
2023/05/25 02:36:58;;;;;;;2.35;1.27;;;;;;;;;;5047206;28;20029;-76
2023/05/25 02:39:26;;;;;;;4.90;4.22;;;;;;;;;;5047896;28;20025;-75
2023/05/25 02:41:52;;;;;;;1.65;1.48;;;;;;;;;;5048656;28;20203;-76
2023/05/25 02:44:18;;;;;;;2.25;1.58;;;;;;;;;;5065056;28;20096;-75
2023/05/25 02:46:44;;;;;;;2.78;1.52;;;;;;;;;;5068154;28;20033;-76
2023/05/25 02:49:10;;;;;;;2.63;1.35;;;;;;;;;;5067754;28;20106;-76
2023/05/25 02:51:36;;;;;;;2.15;1.95;;;;;;;;;;5055912;28;20055;-76
2023/05/25 02:54:02;;;;;;;1.45;1.23;;;;;;;;;;5061491;28;20025;-76
2023/05/25 02:56:28;;;;;;;1.67;1.48;;;7.70;99.90;;;;;;5058567;28;20035;-76
2023/05/25 02:58:54;;;;;;;1.55;1.35;;;;;;;;;;5067307;28;20389;-75
2023/05/25 03:01:20;;;;;;;2.35;1.60;;;;;;;;;;5058227;28;20104;-76
2023/05/25 03:03:50;;;;;;;2.75;1.52;;;8.10;99.60;;;;;;5047706;28;20104;-76
2023/05/25 03:06:16;;;;;;;2.63;1.55;;;8.20;99.90;;;;;;5048226;28;20754;-76
2023/05/25 03:08:42;;;;;;;1.65;1.55;;;;;;;;;;5048103;28;20041;-76
2023/05/25 03:11:08;;;;;;;8.85;2.13;;;;;;;;;;5047486;28;20401;-76
2023/05/25 03:13:35;;;;;;;1.70;1.48;;;;;;;;;;5048377;28;20056;-75
2023/05/25 03:16:01;;;;;;;2.95;1.80;;;;;;;;;;5047814;28;20078;-76
2023/05/25 03:18:27;;;;;;;5.53;1.98;;;;;;;;;;5048391;28;20053;-76
2023/05/25 03:20:53;;;;;;;3.67;1.42;;;;;;;;;;5048315;28;20025;-76
2023/05/25 03:23:19;;;;;;;1.92;1.20;;;;;;;;;;5048443;28;20116;-76
2023/05/25 03:25:45;;;;;;;2.28;1.92;;;7.50;99.90;;;;;;5046945;28;20055;-76
2023/05/25 03:28:11;;;;;;;3.17;1.90;;;;;;;;;;5046240;28;20518;-76
2023/05/25 03:30:37;;;;;;;4.57;2.45;;;;;;;;;;5047569;28;20117;-76
2023/05/25 03:33:03;;;;;;;4.05;1.65;;;;;;;;;;5047119;28;20044;-76
2023/05/25 03:35:29;;;;;;;5.32;1.98;;;;;;;;;;5048177;28;20025;-76
2023/05/25 03:37:55;;;;;;;5.32;1.67;;;;;;;;;;5051744;28;20077;-76
2023/05/25 03:40:21;;;;;;;1.52;0.90;;;;;;;;;;5067723;28;20033;-76
2023/05/25 03:42:47;;;;;;;14.18;2.13;;;;;;;;;;5067122;28;20024;-76
2023/05/25 03:45:13;;;;;;;12.68;1.95;;;;;;;;;;5067681;28;20443;-76
2023/05/25 03:47:39;;;;;;;4.60;2.47;;;;;;;;;;5065888;28;20029;-76
2023/05/25 03:50:06;;;;;;;1.98;1.60;;;;;;;;;;5067686;28;20483;-76
2023/05/25 03:52:32;;;;;;;4.22;2.33;;;;;;;;;;5069564;28;20451;-76
2023/05/25 03:55:00;;;;;;;1.83;1.30;;;;;;;;;;5070675;28;20103;-76
2023/05/25 03:57:27;;;;;;;2.20;1.55;;;;;;;;;;5069325;28;20440;-76
2023/05/25 03:59:53;;;;;;;2.97;1.90;;;;;;;;;;5061066;28;20063;-76
2023/05/25 04:02:19;;;;;;;10.27;1.30;;;;;;;;;;5067786;28;20024;-76
2023/05/25 04:04:45;;;;;;;3.28;1.48;;;;;;;;;;5062768;28;20028;-76
2023/05/25 04:07:11;;;;;;;1.30;1.17;;;;;;;;;;5069131;28;20028;-76
2023/05/25 04:09:37;;;;;;;4.25;1.35;;;;;;;;;;5070936;28;20071;-76
2023/05/25 04:12:03;;;;;;;1.38;1.20;;;;;;;;;;5069731;28;20208;-76
2023/05/25 04:14:29;;;;;;;2.05;1.85;;;;;;;;;;5069972;28;20091;-77
2023/05/25 04:16:55;;;;;;;2.33;1.30;;;;;;;;;;5056707;28;20261;-76
2023/05/25 04:19:21;;;;;;;2.40;1.88;;;;;;;;;;5070284;28;20112;-76
2023/05/25 04:21:47;;;;;;;2.67;1.30;;;;;;;;;;5069844;28;20032;-76
2023/05/25 04:24:13;;;;;;;6.57;1.75;;;;;;;;;;5065829;28;20089;-76
2023/05/25 04:26:40;;;;;;;4.15;2.28;;;;;;;;;;5058489;28;20115;-76
2023/05/25 04:29:06;;;;;;;2.20;1.52;;;;;;;;;;5070569;28;20085;-76
2023/05/25 04:31:32;;;;;;;3.85;2.53;;;;;;;;;;5069245;28;20097;-76
2023/05/25 04:33:58;;;;;;;3.50;2.00;;;;;;;;;;5070140;28;20024;-76
2023/05/25 04:36:24;;;;;;;3.55;1.75;;;;;;;;;;5051452;28;20493;-76
2023/05/25 04:38:53;;;;;;;3.55;1.52;;;;;;;;;;5062945;28;20024;-76
2023/05/25 04:41:19;;;;;;;2.58;1.83;;;;;;;;;;5069838;28;20052;-76
2023/05/25 04:43:45;;;;;;;2.08;1.60;;;;;;;;;;5070229;28;20028;-76
2023/05/25 04:46:12;;;;;;;3.00;1.67;;;7.80;99.90;;;;;;5070277;28;20809;-76
2023/05/25 04:48:39;;;;;;;5.60;1.67;;;;;;;;;;5070849;28;20044;-76
2023/05/25 04:51:06;;;;;;;3.38;2.13;;;;;;;;;;5069824;28;20028;-76
2023/05/25 04:53:34;;;;;;;2.50;1.20;;;;;;;;;;5070296;28;20114;-76
2023/05/25 04:56:00;;;;;;;2.15;1.80;;;;;;;;;;5069966;28;20020;-76
2023/05/25 04:58:28;;;;;;;5.28;1.70;;;;;;;;;;5067952;28;20123;-76
2023/05/25 05:00:54;;;;;;;4.20;1.85;;;;;;;;;;5056728;28;20568;-75
2023/05/25 05:03:20;;;;;;;1.80;1.33;;;;;;;;;;5054832;28;20858;-76
2023/05/25 05:05:46;;;;;;;4.10;2.40;;;;;;;;;;5069462;28;20158;-76
2023/05/25 05:08:12;;;;;;;3.90;1.48;;;;;;;;;;5068661;28;20025;-76
2023/05/25 05:10:38;;;;;;;3.60;1.48;;;8.50;99.90;;;;;;5062730;28;20101;-76
2023/05/25 05:13:04;;;;;;;10.50;1.73;;;;;;;;;;5068640;28;20100;-76
2023/05/25 05:15:30;;;;;;;5.65;1.88;;;;;;;;;;5069112;28;20069;-76
2023/05/25 05:17:56;;;;;;;5.85;1.52;;;;;;;;;;5067965;28;20117;-75
2023/05/25 05:20:22;;;;;;;2.15;1.65;;;;;;;;;;5068901;28;20063;-76
2023/05/25 05:22:48;;;;;;;3.10;1.58;;;;;;;;;;5067492;28;20121;-76
2023/05/25 05:25:14;;;;;;;4.93;2.00;;;;;;;;;;5064835;28;20176;-76
2023/05/25 05:27:40;;;;;;;3.38;1.73;;;;;;;;;;5052496;28;20130;-76
2023/05/25 05:30:07;;;;;;;3.38;2.50;;;;;;;;;;5059788;28;20107;-75
2023/05/25 05:32:33;;;;;;;2.33;1.88;;;;;;;;;;5054276;28;20047;-76
2023/05/25 05:34:59;;;;;;;1.63;1.30;;;10.00;98.40;;;;;;5058445;28;20027;-76
2023/05/25 05:37:25;;;;;;;2.72;1.80;;;;;;;;;;5064565;28;20028;-76
2023/05/25 05:39:52;;;;;;;2.17;1.60;;;;;;;;;;5051755;28;20029;-76
2023/05/25 05:42:18;;;;;;;2.37;2.00;;;;;;;;;;5051863;28;20031;-75
2023/05/25 05:44:44;;;;;;;7.55;2.47;;;;;;;;;;5059692;28;20021;-76
2023/05/25 05:47:10;;;;;;;5.53;1.80;;;;;;;;;;5059966;28;20028;-76
2023/05/25 05:49:38;;;;;;;3.58;1.58;;;;;;;;;;5042811;28;20025;-77
2023/05/25 05:52:04;;;;;;;3.83;2.03;;;;;;;;;;5048065;28;20041;-77
2023/05/25 05:54:30;;;;;;;4.28;2.08;;;;;;;;;;5093652;28;20739;-76
2023/05/25 05:56:56;;;;;;;4.40;1.77;;;11.00;95.70;;;;;;5097440;28;20015;-80
2023/05/25 05:59:22;;;;;;;3.17;1.75;;;;;;;;;;5089187;28;20028;-76
2023/05/25 06:01:49;;;;;;;3.75;2.20;;;;;;;;;;5094242;28;20073;-76
2023/05/25 06:04:15;;;;;;;4.28;2.05;;;;;;;;;;5099299;28;20028;-76
2023/05/25 06:06:41;;;;;;;4.32;2.38;;;;;;;;;;5091642;28;20024;-76
2023/05/25 06:09:08;;;;;;;3.90;2.43;;;;;;;;;;5099372;28;20031;-76
2023/05/25 06:11:36;;;;;;;3.33;2.15;;;12.20;91.50;;;;;;5088214;28;20042;-76
2023/05/25 06:14:02;;;;;;;3.97;2.10;;;;;;;;;;5094443;28;20028;-76
2023/05/25 06:16:28;;;;;;;2.38;1.50;;;;;;;;;;5103858;28;20038;-76
2023/05/25 06:18:54;;;;;;;3.78;1.75;;;12.80;96.30;;;;;;5101996;28;20028;-75
2023/05/25 06:21:20;;;;;;;1.63;1.38;;;;;;;;;;5089349;28;20032;-76
2023/05/25 06:23:47;;;;;;;5.85;2.05;;;;;;;;;;5087903;28;20080;-76
2023/05/25 06:26:13;;;;;;;2.85;1.50;;;;;;;;;;5088146;28;20059;-76
2023/05/25 06:28:40;;;;;;;10.50;1.83;;;;;;;;;;5095123;28;20008;-76
2023/05/25 06:31:06;;;;;;;6.50;2.20;;;;;;;;;;5103698;28;20074;-76
2023/05/25 06:33:33;;;;;;;2.08;1.40;;;;;;;;;;5088436;28;20069;-78
2023/05/25 06:35:59;;;;;;;3.22;2.33;;;;;;;;;;5086964;28;20032;-77
2023/05/25 06:38:28;;;;;;;2.97;2.13;;;17.20;73.60;;;;;;5083203;28;20027;-78
2023/05/25 06:40:54;;;;;;;5.25;2.17;;;;;;;;;;5098834;28;20126;-76
2023/05/25 06:43:20;;;;;;;8.57;3.17;;;;;;;;;;5096495;28;20081;-76
2023/05/25 06:45:46;;;;;;;2.38;2.17;;;;;;;;;;5093495;28;20396;-77
2023/05/25 06:48:12;;;;;;;3.00;1.85;;;;;;;;;;5089985;28;20036;-77
2023/05/25 06:50:39;;;;;;;3.20;1.83;;;;;;;;;;5096105;28;20034;-77
2023/05/25 06:53:05;;;;;;;3.42;1.63;;;;;;;;;;5091990;28;20040;-77
2023/05/25 06:55:31;;;;;;;3.22;1.73;;;;;;;;;;5079635;28;20059;-77
2023/05/25 06:57:57;;;;;;;4.22;1.75;;;;;;;;;;5070678;28;20495;-77
2023/05/25 07:00:23;;;;;;;3.80;1.30;;;38.80;34.50;;;;;;5089492;28;20450;-77
2023/05/25 07:02:49;;;;;;;4.13;1.50;;;;;;;;;;5084457;28;20024;-78
2023/05/25 07:05:15;;;;;;;3.55;1.67;;;;;;;;;;5086084;28;20027;-77
2023/05/25 07:07:41;;;;;;;2.15;1.10;;;;;;;;;;5081644;28;20508;-77
2023/05/25 07:10:07;;;;;;;4.57;1.52;;;36.80;32.90;;;;;;5090559;28;20055;-77
2023/05/25 07:12:33;;;;;;;;;;;36.80;33.30;;;;;;5089086;28;20113;-77
2023/05/25 07:14:58;;;;;;;;;;;36.00;31.50;;;;;;5086859;28;19939;-78
2023/05/25 07:17:24;;;;;;;4.53;1.43;;;32.90;39.70;;;;;;5091231;28;19961;-77
2023/05/25 07:19:50;;;;;;;5.03;1.70;;;;;;;;;;5082489;28;20082;-77
2023/05/25 07:22:17;;;;;;;3.83;1.35;;;;;;;;;;5081832;28;20105;-77
2023/05/25 07:24:44;;;;;;;4.22;1.33;;;33.70;32.90;;;;;;5082460;28;20083;-77
2023/05/25 07:27:11;;;;;;;7.32;2.13;;;32.50;31.90;;;;;;5091023;28;20024;-77
2023/05/25 07:29:38;;;;;;;5.65;1.75;;;;;;;;;;5091315;28;20054;-77
2023/05/25 07:32:04;;;;;;;6.78;2.17;;;;;;;;;;5090793;28;20040;-76
2023/05/25 07:34:30;;;;;;;3.58;1.55;;;30.90;34.60;;;;;;5082931;28;20111;-77
2023/05/25 07:36:56;;;;;;;4.67;1.83;;;;;;;;;;5075621;28;20136;-77
2023/05/25 07:39:22;;;;;;;3.93;1.70;;;;;;;;;;5089693;28;20038;-77
2023/05/25 07:41:47;;;;;;;2.77;1.43;;;;;;;;;;5082502;28;20515;-77
2023/05/25 07:44:13;;;;;;;3.40;1.50;;;;;;;;;;5077603;28;20024;-78
2023/05/25 07:46:39;;;;;;;8.07;2.10;;;;;;;;;;5094540;28;20012;-79
2023/05/25 07:49:10;;;;;;;3.63;1.97;;;;;;;;;;5083594;28;20262;-76
2023/05/25 07:51:36;;;;;;;4.25;2.13;;;34.00;38.80;;;;;;5090418;28;20574;-77
2023/05/25 07:54:02;;;;;;;8.53;2.37;;;;;;;;;;5089862;28;20036;-79
2023/05/25 07:56:28;;;;;;;6.47;1.95;;;;;;;;;;5092226;28;20028;-79
2023/05/25 07:58:54;;;;;;;6.78;2.25;;;37.70;36.90;;;;;;5085953;28;20103;-79
2023/05/25 08:01:20;;;;;;;9.37;1.60;;;;;;;;;;5080197;28;20127;-83
2023/05/25 08:03:46;;;;;;;2.72;2.13;;;39.20;30.00;;;;;;5085514;28;20032;-77
2023/05/25 08:06:11;;;;;;;3.63;1.45;;;38.30;34.40;;;;;;5088712;28;20513;-78
2023/05/25 08:08:37;;;;;;;17.43;2.30;;;;;;;;;;5091648;28;20051;-76
2023/05/25 08:11:03;;;;;;;4.70;1.85;;;;;;;;;;5087785;28;20440;-83
2023/05/25 08:13:29;;;;;;;3.67;1.55;;;;;;;;;;5081471;28;20025;-82
2023/05/25 08:15:55;;;;;;;4.20;2.30;;;;;;;;;;5095318;28;20024;-82
2023/05/25 08:18:21;;;;;;;5.93;1.67;;;;;;;;;;5080404;28;20024;-80
2023/05/25 08:20:47;;;;;;;4.23;2.60;;;;;;;;;;5081527;28;20199;-82
2023/05/25 08:23:13;;;;;;;9.53;3.33;;;;;;;;;;5075581;28;20396;-78
2023/05/25 08:25:39;;;;;;;5.80;2.13;;;26.20;44.50;;;;;;5086943;28;20099;-78
2023/05/25 08:28:05;;;;;;;8.45;2.35;;;;;;;;;;5091281;28;20030;-77
2023/05/25 08:30:32;;;;;;;5.82;2.10;;;;;;;;;;5095445;28;20044;-78
2023/05/25 08:32:58;;;;;;;9.13;2.20;;;;;;;;;;5080751;28;20637;-79
2023/05/25 08:35:24;;;;;;;8.40;1.92;;;;;;;;;;5086060;28;20043;-79
2023/05/25 08:37:50;;;;;;;7.53;2.47;;;;;;;;;;5087731;28;20043;-78
2023/05/25 08:40:17;;;;;;;11.07;2.20;;;25.20;35.10;;;;;;5087844;28;20107;-80
2023/05/25 08:42:44;;;;;;;;;;;25.60;35.30;;;;;;5078662;28;20019;-80
2023/05/25 08:45:10;;;;;;;6.55;2.58;;;24.90;35.60;;;;;;5027359;28;19921;-78
2023/05/25 08:47:40;;;;;;;7.65;2.40;;;26.50;34.80;;;;;;5091704;28;20045;-77
2023/05/25 08:50:08;;;;;;;3.92;2.17;;;33.00;41.40;;;;;;5084590;28;20131;-79
2023/05/25 08:52:36;;;;;;;6.28;1.98;;;38.20;35.50;;;;;;5083280;28;20024;-79
2023/05/25 08:55:05;;;;;;;5.47;2.03;;;41.00;30.30;;;;;;5085145;28;20032;-78
2023/05/25 08:57:31;;;;;;;4.25;1.98;;;;;;;;;;5097751;28;20023;-78
2023/05/25 09:00:06;;;;;;;7.22;1.90;;;42.30;30.80;;;;;;5079728;28;20028;-78
2023/05/25 09:02:49;;;;;;;5.18;2.08;;;40.60;25.90;;;;;;5078052;28;20131;-77
2023/05/25 09:05:15;;;;;;;6.20;2.15;;;;;;;;;;5085807;28;20551;-77
2023/05/25 09:07:42;;;;;;;3.83;1.60;;;38.00;27.20;;;;;;5080946;28;20571;-78
2023/05/25 09:10:10;;;;;;;3.47;1.67;;;37.90;27.10;;;;;;5090372;28;20032;-77
2023/05/25 09:12:37;;;;;;;3.80;1.55;;;39.30;28.00;;;;;;5087079;28;20032;-77
2023/05/25 09:15:03;;;;;;;8.43;2.05;;;40.10;31.70;;;;;;5087470;28;20054;-76
2023/05/25 09:17:30;;;;;;;6.45;2.10;;;41.90;26.50;;;;;;5097332;28;20500;-77
2023/05/25 09:19:57;;;;;;;4.18;1.95;;;44.60;29.40;;;;;;5085734;28;20024;-79
2023/05/25 09:22:23;;;;;;;5.43;1.95;;;;;;;;;;5075448;28;20017;-77
2023/05/25 09:24:49;;;;;;;;;;;46.20;25.00;;;;;;5084058;28;20020;-78
2023/05/25 09:27:21;;;;;;;9.10;1.90;;;48.40;24.70;;;;;;5093100;28;19929;-78
2023/05/25 09:29:50;;;;;;;2.97;2.10;;;49.60;24.10;;;;;;5090155;28;20044;-79
2023/05/25 09:32:16;;;;;;;4.25;1.60;;;50.60;27.10;;;;;;5070870;28;20039;-78
2023/05/25 09:34:43;;;;;;;5.20;2.10;;;49.90;25.10;;;;;;5087619;28;20459;-79
2023/05/25 09:37:14;;;;;;;5.15;1.83;;;48.70;24.10;;;;;;5070824;28;20036;-78
2023/05/25 09:39:41;;;;;;;6.88;2.00;;;48.50;24.20;;;;;;5077173;28;20028;-78
2023/05/25 09:42:07;;;;;;;8.05;2.05;;;49.60;27.40;;;;;;5076633;28;20138;-78
2023/05/25 09:44:33;;;;;;;3.88;1.90;;;;;;;;;;5084826;28;20107;-79
2023/05/25 09:46:59;;;;;;;5.03;2.53;;;;;;;;;;5075316;28;20029;-79
2023/05/25 09:49:25;;;;;;;6.03;2.28;;;49.90;22.70;;;;;;5088631;28;20572;-79
2023/05/25 09:51:51;;;;;;;3.88;1.77;;;48.90;24.70;;;;;;5077884;28;20048;-79
2023/05/25 09:54:17;;;;;;;3.80;2.03;;;;;;;;;;5078601;28;20504;-79
2023/05/25 09:56:44;;;;;;;3.13;1.50;;;;;;;;;;5087108;28;20101;-80
2023/05/25 09:59:11;;;;;;;3.63;2.22;;;44.10;23.20;;;;;;5094656;28;20028;-79
2023/05/25 10:01:37;;;;;;;4.85;2.13;;;;;;;;;;5086368;28;20061;-79
2023/05/25 10:04:03;;;;;;;2.60;1.60;;;;;;;;;;5089625;28;20102;-79
2023/05/25 10:06:30;;;;;;;7.25;2.47;;;39.90;25.20;;;;;;5076672;28;20032;-78
2023/05/25 10:08:56;;;;;;;6.05;2.17;;;43.70;24.40;;;;;;5079554;28;20403;-77
2023/05/25 10:11:25;;;;;;;3.63;2.15;;;46.00;23.40;;;;;;5080682;28;20052;-77
2023/05/25 10:13:52;;;;;;;7.45;2.20;;;45.10;23.10;;;;;;5084587;28;20412;-75
2023/05/25 10:16:21;;;;;;;7.80;2.22;;;;;;;;;;5085082;28;20435;-77
2023/05/25 10:18:55;;;;;;;4.07;1.80;;;44.00;23.70;;;;;;5073800;28;20024;-76
2023/05/25 10:21:22;;;;;;;4.53;1.42;;;43.30;24.30;;;;;;5081980;28;20060;-76
2023/05/25 10:23:55;;;;;;;8.18;2.75;;;42.20;24.40;;;;;;5085203;28;20020;-76
2023/05/25 10:26:25;;;;;;;4.68;1.77;;;41.10;24.80;;;;;;5079194;28;20028;-76
2023/05/25 10:28:51;;;;;;;6.13;2.20;;;;;;;;;;5075401;28;20070;-79
2023/05/25 10:31:17;;;;;;;;;;;39.90;25.20;;;;;;5079958;28;20154;-76
2023/05/25 10:33:45;;;;;;;5.57;1.73;;;38.40;33.90;;;;;;5072043;28;19995;-76
2023/05/25 10:36:12;;;;;;;3.58;1.63;;;;;;;;;;5082081;28;20612;-77
2023/05/25 10:38:43;;;;;;;2.72;2.17;;;34.20;27.50;;;;;;5072549;28;20035;-76
2023/05/25 10:41:10;;;;;;;2.97;1.83;;;;;;;;;;5081042;28;20036;-77
2023/05/25 10:43:37;;;;;;;4.22;1.75;;;32.30;33.80;;;;;;5082873;28;20038;-76
2023/05/25 10:46:04;;;;;;;5.10;2.38;;;33.30;28.70;;;;;;5088593;28;20024;-76
2023/05/25 10:48:45;;;;;;;8.00;2.22;;;34.70;29.10;;;;;;5080631;28;20511;-77
2023/05/25 10:51:11;;;;;;;4.95;2.35;;;35.60;27.50;;;;;;5089148;28;20024;-77
2023/05/25 10:53:37;;;;;;;4.55;2.20;;;;;;;;;;5084512;28;20032;-78
2023/05/25 10:56:05;;;;;;;5.82;2.30;;;35.90;29.20;;;;;;5093730;28;20393;-78
2023/05/25 10:58:31;;;;;;;4.78;2.80;;;34.70;27.80;;;;;;5092072;28;20032;-78
2023/05/25 11:00:57;;;;;;;4.72;2.33;;;;;;;;;;5090266;28;20125;-79
2023/05/25 11:03:46;;;;;;;6.70;2.75;;;35.30;32.30;;;;;;5080071;28;20404;-84
2023/05/25 11:06:12;;;;;;;4.68;1.83;;;;;;;;;;5081616;28;20032;-79
2023/05/25 11:08:51;;;;;;;5.63;2.03;;;35.70;28.20;;;;;;5084218;28;20016;-79
2023/05/25 11:11:17;;;;;;;4.70;2.08;;;;;;;;;;5087674;28;20028;-79
2023/05/25 11:13:48;;;;;;;7.00;2.20;;;35.20;28.00;;;;;;5081575;28;20408;-78
2023/05/25 11:16:38;;;;;;;6.80;2.47;;;34.20;28.70;;;;;;5075495;28;20031;-78
2023/05/25 11:19:13;;;;;;;6.32;2.30;;;33.20;29.10;;;;;;5086957;28;20020;-78
2023/05/25 11:21:39;;;;;;;8.55;1.92;;;;;;;;;;5083341;28;20020;-78
2023/05/25 11:24:13;;;;;;;7.65;2.13;;;32.30;29.50;;;;;;5094303;28;20047;-78
2023/05/25 11:26:53;;;;;;;8.65;2.13;;;33.10;29.50;;;;;;5094263;28;20056;-79
2023/05/25 11:29:19;;;;;;;4.55;3.05;;;35.60;30.60;;;;;;5090614;28;20028;-79
2023/05/25 11:31:54;;;;;;;8.40;3.13;;;37.40;27.80;;;;;;5076289;28;20036;-79
2023/05/25 11:34:24;;;;;;;4.43;2.10;;;38.10;27.40;;;;;;5090618;28;20120;-79
2023/05/25 11:37:01;;;;;;;7.25;2.22;;;37.70;27.30;;;;;;5082528;28;20074;-79
2023/05/25 11:39:28;;;;;;;5.15;1.85;;;36.50;27.60;;;;;;5096603;28;20024;-79
2023/05/25 11:41:56;;;;;;;4.00;2.40;;;36.40;28.00;;;;;;5084454;28;20620;-79
2023/05/25 11:44:27;;;;;;;5.95;2.65;;;35.20;28.10;;;;;;5089366;28;20047;-79
2023/05/25 11:46:56;;;;;;;6.32;1.88;;;;;;;;;;5083887;28;20416;-79
2023/05/25 11:49:23;;;;;;;6.28;2.33;;;32.40;41.50;;;;;;5094544;28;20024;-78
2023/05/25 11:51:49;;;;;;;3.67;1.92;;;31.70;35.30;;;;;;5084880;28;20036;-80
2023/05/25 11:54:26;;;;;;;7.10;2.23;;;31.00;30.80;;;;;;5083001;28;20029;-78
2023/05/25 11:56:56;;;;;;;10.52;2.08;;;;;;;;;;5088499;28;20565;-79
2023/05/25 11:59:22;;;;;;;7.72;2.53;;;;;;;;;;5092739;28;20030;-79
2023/05/25 12:02:03;;;;;;;6.77;2.00;;;30.00;43.40;;;;;;5089525;28;20034;-78
2023/05/25 12:04:31;;;;;;;6.38;1.83;;;29.80;45.30;;;;;;5094607;28;20262;-79
2023/05/25 12:07:04;;;;;;;7.10;1.90;;;29.60;32.40;;;;;;5088777;28;20024;-78
2023/05/25 12:09:30;;;;;;;3.03;1.90;;;;;;;;;;5084853;28;20065;-79
2023/05/25 12:11:56;;;;;;;3.78;2.22;;;29.60;42.90;;;;;;5081391;28;21596;-81
2023/05/25 12:14:22;;;;;;;3.50;2.10;;;;;;;;;;5087131;28;20031;-80
2023/05/25 12:16:48;;;;;;;5.45;2.30;;;;;;;;;;5085621;28;20095;-80
2023/05/25 12:19:15;;;;;;;8.85;2.28;;;29.80;32.80;;;;;;5089943;28;20046;-80
2023/05/25 12:21:42;;;;;;;9.63;3.10;;;;;;;;;;5074984;28;20110;-80
2023/05/25 12:24:08;;;;;;;5.57;1.98;;;29.40;33.80;;;;;;5091678;28;20023;-78
2023/05/25 12:26:35;;;;;;;8.05;2.53;;;;;;;;;;5087938;28;20036;-78
2023/05/25 12:29:09;;;;;;;4.40;2.08;;;28.10;34.90;;;;;;5084888;28;20485;-79
2023/05/25 12:31:37;;;;;;;11.45;3.17;;;27.20;35.80;;;;;;5087178;28;20750;-80
2023/05/25 12:34:09;;;;;;;7.78;2.92;;;26.80;47.50;;;;;;5085638;28;20034;-79
2023/05/25 12:36:52;;;;;;;7.88;2.25;;;26.20;39.20;;;;;;5080780;28;20032;-85
2023/05/25 12:39:30;;;;;;;7.57;2.72;;;25.90;51.30;;;;;;5084225;28;20083;-77
2023/05/25 12:42:01;;;;;;;10.50;2.60;;;;;;;;;;5079361;28;20039;-80
2023/05/25 12:44:32;;;;;;;6.38;2.45;;;25.50;38.30;;;;;;5080203;28;20602;-81
2023/05/25 12:47:13;;;;;;;4.85;2.28;;;25.50;38.30;;;;;;5088192;28;20051;-81
2023/05/25 12:49:40;;;;;;;3.97;2.00;;;25.50;38.60;;;;;;5086480;28;20075;-81
2023/05/25 12:52:06;;;;;;;7.03;2.60;;;;;;;;;;5082106;28;20052;-83
2023/05/25 12:54:33;;;;;;;5.80;2.40;;;25.40;39.80;;;;;;5081552;28;20031;-80
2023/05/25 12:57:01;;;;;;;7.32;3.03;;;;;;;;;;5093128;28;20436;-80
2023/05/25 12:59:27;;;;;;;5.65;2.65;;;;;;;;;;5095316;28;20020;-80
2023/05/25 13:01:53;;;;;;;2.92;1.95;;;;;;;;;;5086702;28;20066;-80
2023/05/25 13:04:20;;;;;;;7.82;2.42;;;;;;;;;;5083599;28;20031;-81
2023/05/25 13:06:46;;;;;;;7.78;2.30;;;;;;;;;;5092182;28;20059;-81
2023/05/25 13:09:11;;;;;;;4.10;2.20;;;25.60;44.30;;;;;;5095308;28;20048;-82
2023/05/25 13:11:37;;;;;;;6.97;2.47;;;;;;;;;;5080657;28;20044;-82
2023/05/25 13:14:03;;;;;;;6.50;2.80;;;25.00;43.10;;;;;;5078734;28;20098;-81
2023/05/25 13:16:32;;;;;;;10.43;3.57;;;24.90;55.00;;;;;;5086262;28;20033;-81
2023/05/25 13:18:58;;;;;;;4.53;2.00;;;;;;;;;;5084789;28;20047;-85
2023/05/25 13:21:25;;;;;;;4.95;2.60;;;;;;;;;;5085883;28;20405;-81
2023/05/25 13:23:51;;;;;;;8.05;2.63;;;;;;;;;;5077965;28;20025;-83
2023/05/25 13:26:18;;;;;;;5.35;2.67;;;25.80;40.30;;;;;;5092240;28;20032;-80
2023/05/25 13:28:43;;;;;;;;;;;25.80;40.60;;;;;;5079313;28;20720;-81
2023/05/25 13:31:09;;;;;;;9.70;2.17;;;;;;;;;;5086486;28;19972;-82
2023/05/25 13:33:36;;;;;;;5.88;2.10;;;;;;;;;;5073080;28;20066;-81
2023/05/25 13:36:07;;;;;;;8.02;2.33;;;25.40;55.00;;;;;;5084352;28;20044;-80
2023/05/25 13:38:34;;;;;;;6.28;2.25;;;;;;;;;;5087592;28;20062;-79
2023/05/25 13:41:00;;;;;;;3.45;2.13;;;;;;;;;;5086466;28;20106;-77
2023/05/25 13:43:26;;;;;;;3.50;2.28;;;;;;;;;;5075993;28;20100;-80
2023/05/25 13:45:52;;;;;;;7.00;3.88;;;;;;;;;;5091474;28;20563;-76
2023/05/25 13:48:18;;;;;;;4.07;2.50;;;;;;;;;;5079652;28;20066;-79
2023/05/25 13:50:44;;;;;;;5.65;2.70;;;;;;;;;;5087558;28;20055;-78
2023/05/25 13:53:11;;;;;;;4.15;2.03;;;23.20;45.50;;;;;;5079472;28;20039;-80
2023/05/25 13:55:37;;;;;;;4.30;2.60;;;;;;;;;;5094921;28;20028;-76